sensor_id;sensor_type;location;lat;lon;timestamp;P1;durP1;ratioP1;P2;durP2;ratioP2
76617;SDS011;65509;42.816;74.648;2022-12-07T00:01:22;49.95;;;18.25;;
76617;SDS011;65509;42.816;74.648;2022-12-07T00:03:48;74.97;;;23.55;;
76617;SDS011;65509;42.816;74.648;2022-12-07T00:06:14;131.52;;;44.97;;
76617;SDS011;65509;42.816;74.648;2022-12-07T00:08:40;265.80;;;90.15;;
76617;SDS011;65509;42.816;74.648;2022-12-07T00:11:06;228.07;;;77.15;;
76617;SDS011;65509;42.816;74.648;2022-12-07T00:13:32;294.02;;;103.47;;
76617;SDS011;65509;42.816;74.648;2022-12-07T00:16:02;318.92;;;108.50;;
76617;SDS011;65509;42.816;74.648;2022-12-07T00:18:27;306.50;;;99.38;;
76617;SDS011;65509;42.816;74.648;2022-12-07T00:20:53;238.77;;;77.65;;
76617;SDS011;65509;42.816;74.648;2022-12-07T00:23:23;376.10;;;106.05;;
76617;SDS011;65509;42.816;74.648;2022-12-07T00:25:49;236.00;;;77.30;;
76617;SDS011;65509;42.816;74.648;2022-12-07T00:28:14;257.20;;;78.60;;
76617;SDS011;65509;42.816;74.648;2022-12-07T00:30:40;191.35;;;65.13;;
76617;SDS011;65509;42.816;74.648;2022-12-07T00:33:05;162.68;;;55.92;;
76617;SDS011;65509;42.816;74.648;2022-12-07T00:35:31;261.08;;;79.32;;
76617;SDS011;65509;42.816;74.648;2022-12-07T00:37:56;261.52;;;81.25;;
76617;SDS011;65509;42.816;74.648;2022-12-07T00:40:24;218.02;;;72.50;;
76617;SDS011;65509;42.816;74.648;2022-12-07T00:42:53;348.27;;;84.80;;
76617;SDS011;65509;42.816;74.648;2022-12-07T00:45:18;280.58;;;85.55;;
76617;SDS011;65509;42.816;74.648;2022-12-07T00:47:44;259.58;;;86.65;;
76617;SDS011;65509;42.816;74.648;2022-12-07T00:50:09;255.20;;;83.45;;
76617;SDS011;65509;42.816;74.648;2022-12-07T00:52:35;275.92;;;87.60;;
76617;SDS011;65509;42.816;74.648;2022-12-07T00:55:00;230.52;;;83.45;;
76617;SDS011;65509;42.816;74.648;2022-12-07T00:57:26;175.80;;;60.40;;
76617;SDS011;65509;42.816;74.648;2022-12-07T00:59:51;280.88;;;91.35;;
76617;SDS011;65509;42.816;74.648;2022-12-07T01:02:20;238.45;;;78.32;;
76617;SDS011;65509;42.816;74.648;2022-12-07T01:04:46;193.85;;;67.75;;
76617;SDS011;65509;42.816;74.648;2022-12-07T01:07:11;167.88;;;60.92;;
76617;SDS011;65509;42.816;74.648;2022-12-07T01:09:37;228.57;;;71.22;;
76617;SDS011;65509;42.816;74.648;2022-12-07T01:12:02;205.45;;;58.83;;
76617;SDS011;65509;42.816;74.648;2022-12-07T01:14:28;360.83;;;99.75;;
76617;SDS011;65509;42.816;74.648;2022-12-07T01:16:55;291.25;;;83.63;;
76617;SDS011;65509;42.816;74.648;2022-12-07T01:19:20;210.88;;;62.22;;
76617;SDS011;65509;42.816;74.648;2022-12-07T01:21:46;200.73;;;59.15;;
76617;SDS011;65509;42.816;74.648;2022-12-07T01:24:11;167.48;;;51.58;;
76617;SDS011;65509;42.816;74.648;2022-12-07T01:26:37;164.60;;;51.75;;
76617;SDS011;65509;42.816;74.648;2022-12-07T01:29:02;230.00;;;70.38;;
76617;SDS011;65509;42.816;74.648;2022-12-07T01:31:28;212.90;;;65.53;;
76617;SDS011;65509;42.816;74.648;2022-12-07T01:33:58;189.77;;;56.28;;
76617;SDS011;65509;42.816;74.648;2022-12-07T01:36:25;206.88;;;64.97;;
76617;SDS011;65509;42.816;74.648;2022-12-07T01:38:51;281.92;;;94.53;;
76617;SDS011;65509;42.816;74.648;2022-12-07T01:41:17;208.23;;;74.03;;
76617;SDS011;65509;42.816;74.648;2022-12-07T01:46:27;109.60;;;35.35;;
76617;SDS011;65509;42.816;74.648;2022-12-07T01:48:53;97.50;;;32.90;;
76617;SDS011;65509;42.816;74.648;2022-12-07T01:51:18;120.72;;;39.60;;
76617;SDS011;65509;42.816;74.648;2022-12-07T01:53:44;124.15;;;41.40;;
76617;SDS011;65509;42.816;74.648;2022-12-07T01:56:11;106.35;;;35.95;;
76617;SDS011;65509;42.816;74.648;2022-12-07T01:58:37;149.88;;;51.58;;
76617;SDS011;65509;42.816;74.648;2022-12-07T02:01:03;135.43;;;45.33;;
76617;SDS011;65509;42.816;74.648;2022-12-07T02:03:39;166.35;;;56.33;;
76617;SDS011;65509;42.816;74.648;2022-12-07T02:06:05;152.68;;;56.38;;
76617;SDS011;65509;42.816;74.648;2022-12-07T02:08:32;133.55;;;50.47;;
76617;SDS011;65509;42.816;74.648;2022-12-07T02:10:57;123.80;;;45.13;;
76617;SDS011;65509;42.816;74.648;2022-12-07T02:13:24;111.70;;;39.58;;
76617;SDS011;65509;42.816;74.648;2022-12-07T02:21:14;117.07;;;43.08;;
76617;SDS011;65509;42.816;74.648;2022-12-07T02:26:23;119.38;;;44.30;;
76617;SDS011;65509;42.816;74.648;2022-12-07T02:31:36;151.10;;;51.78;;
76617;SDS011;65509;42.816;74.648;2022-12-07T02:34:05;148.02;;;50.63;;
76617;SDS011;65509;42.816;74.648;2022-12-07T02:36:32;161.57;;;53.92;;
76617;SDS011;65509;42.816;74.648;2022-12-07T02:39:07;153.88;;;55.13;;
76617;SDS011;65509;42.816;74.648;2022-12-07T02:41:40;174.02;;;62.70;;
76617;SDS011;65509;42.816;74.648;2022-12-07T02:44:08;159.73;;;59.33;;
76617;SDS011;65509;42.816;74.648;2022-12-07T02:46:42;143.18;;;52.38;;
76617;SDS011;65509;42.816;74.648;2022-12-07T02:49:09;114.95;;;42.15;;
76617;SDS011;65509;42.816;74.648;2022-12-07T02:51:38;128.25;;;48.20;;
76617;SDS011;65509;42.816;74.648;2022-12-07T02:54:08;118.95;;;43.58;;
76617;SDS011;65509;42.816;74.648;2022-12-07T02:56:49;109.13;;;40.80;;
76617;SDS011;65509;42.816;74.648;2022-12-07T03:04:57;251.27;;;73.53;;
76617;SDS011;65509;42.816;74.648;2022-12-07T03:07:39;192.40;;;62.08;;
76617;SDS011;65509;42.816;74.648;2022-12-07T03:12:42;377.55;;;112.57;;
76617;SDS011;65509;42.816;74.648;2022-12-07T03:15:11;224.07;;;78.57;;
76617;SDS011;65509;42.816;74.648;2022-12-07T03:17:38;184.13;;;67.28;;
76617;SDS011;65509;42.816;74.648;2022-12-07T03:20:06;156.40;;;55.38;;
76617;SDS011;65509;42.816;74.648;2022-12-07T03:22:33;104.38;;;37.78;;
76617;SDS011;65509;42.816;74.648;2022-12-07T03:25:01;89.03;;;33.30;;
76617;SDS011;65509;42.816;74.648;2022-12-07T03:27:31;82.93;;;27.23;;
76617;SDS011;65509;42.816;74.648;2022-12-07T03:29:59;76.90;;;29.60;;
76617;SDS011;65509;42.816;74.648;2022-12-07T03:32:27;74.90;;;27.75;;
76617;SDS011;65509;42.816;74.648;2022-12-07T03:35:00;61.10;;;23.27;;
76617;SDS011;65509;42.816;74.648;2022-12-07T03:37:40;104.20;;;34.00;;
76617;SDS011;65509;42.816;74.648;2022-12-07T03:42:39;74.70;;;29.05;;
76617;SDS011;65509;42.816;74.648;2022-12-07T03:45:05;92.20;;;31.02;;
76617;SDS011;65509;42.816;74.648;2022-12-07T03:47:33;101.13;;;32.15;;
76617;SDS011;65509;42.816;74.648;2022-12-07T03:50:07;121.78;;;39.05;;
76617;SDS011;65509;42.816;74.648;2022-12-07T03:55:35;94.93;;;34.40;;
76617;SDS011;65509;42.816;74.648;2022-12-07T03:58:04;82.57;;;28.27;;
76617;SDS011;65509;42.816;74.648;2022-12-07T04:00:31;58.38;;;19.58;;
76617;SDS011;65509;42.816;74.648;2022-12-07T04:02:57;59.53;;;20.92;;
76617;SDS011;65509;42.816;74.648;2022-12-07T04:05:23;58.25;;;23.42;;
76617;SDS011;65509;42.816;74.648;2022-12-07T04:07:48;62.38;;;22.98;;
76617;SDS011;65509;42.816;74.648;2022-12-07T04:10:14;66.10;;;24.35;;
76617;SDS011;65509;42.816;74.648;2022-12-07T04:12:39;90.22;;;30.58;;
76617;SDS011;65509;42.816;74.648;2022-12-07T04:15:05;83.28;;;31.98;;
76617;SDS011;65509;42.816;74.648;2022-12-07T04:17:31;89.88;;;32.97;;
76617;SDS011;65509;42.816;74.648;2022-12-07T04:19:56;72.75;;;29.90;;
76617;SDS011;65509;42.816;74.648;2022-12-07T04:22:22;54.20;;;22.23;;
76617;SDS011;65509;42.816;74.648;2022-12-07T04:24:47;57.92;;;20.60;;
76617;SDS011;65509;42.816;74.648;2022-12-07T04:27:12;69.40;;;24.13;;
76617;SDS011;65509;42.816;74.648;2022-12-07T04:29:38;78.95;;;29.60;;
76617;SDS011;65509;42.816;74.648;2022-12-07T04:32:03;72.90;;;28.50;;
76617;SDS011;65509;42.816;74.648;2022-12-07T04:34:29;63.20;;;24.42;;
76617;SDS011;65509;42.816;74.648;2022-12-07T04:36:55;52.97;;;19.40;;
76617;SDS011;65509;42.816;74.648;2022-12-07T04:39:21;55.15;;;22.67;;
76617;SDS011;65509;42.816;74.648;2022-12-07T04:41:47;63.17;;;25.08;;
76617;SDS011;65509;42.816;74.648;2022-12-07T04:44:13;65.88;;;25.80;;
76617;SDS011;65509;42.816;74.648;2022-12-07T04:46:40;68.85;;;24.60;;
76617;SDS011;65509;42.816;74.648;2022-12-07T04:49:05;74.90;;;29.27;;
76617;SDS011;65509;42.816;74.648;2022-12-07T04:51:31;74.25;;;29.75;;
76617;SDS011;65509;42.816;74.648;2022-12-07T04:53:56;54.25;;;22.25;;
76617;SDS011;65509;42.816;74.648;2022-12-07T04:56:23;38.00;;;16.45;;
76617;SDS011;65509;42.816;74.648;2022-12-07T04:58:49;64.25;;;23.45;;
76617;SDS011;65509;42.816;74.648;2022-12-07T05:01:16;58.35;;;23.25;;
76617;SDS011;65509;42.816;74.648;2022-12-07T05:03:41;71.43;;;27.13;;
76617;SDS011;65509;42.816;74.648;2022-12-07T05:06:07;52.55;;;21.70;;
76617;SDS011;65509;42.816;74.648;2022-12-07T05:08:33;35.47;;;14.80;;
76617;SDS011;65509;42.816;74.648;2022-12-07T05:10:59;26.15;;;10.75;;
76617;SDS011;65509;42.816;74.648;2022-12-07T05:13:25;19.98;;;7.43;;
76617;SDS011;65509;42.816;74.648;2022-12-07T05:15:50;19.30;;;7.07;;
76617;SDS011;65509;42.816;74.648;2022-12-07T05:18:16;25.52;;;8.45;;
76617;SDS011;65509;42.816;74.648;2022-12-07T05:20:42;21.83;;;8.70;;
76617;SDS011;65509;42.816;74.648;2022-12-07T05:23:07;23.88;;;9.18;;
76617;SDS011;65509;42.816;74.648;2022-12-07T05:25:33;19.38;;;7.60;;
76617;SDS011;65509;42.816;74.648;2022-12-07T05:27:58;22.98;;;8.43;;
76617;SDS011;65509;42.816;74.648;2022-12-07T05:30:24;22.83;;;8.52;;
76617;SDS011;65509;42.816;74.648;2022-12-07T05:32:50;33.92;;;13.30;;
76617;SDS011;65509;42.816;74.648;2022-12-07T05:35:16;35.88;;;13.15;;
76617;SDS011;65509;42.816;74.648;2022-12-07T05:37:42;31.50;;;11.13;;
76617;SDS011;65509;42.816;74.648;2022-12-07T05:40:07;33.08;;;13.02;;
76617;SDS011;65509;42.816;74.648;2022-12-07T05:42:33;29.35;;;11.80;;
76617;SDS011;65509;42.816;74.648;2022-12-07T05:44:59;32.75;;;12.73;;
76617;SDS011;65509;42.816;74.648;2022-12-07T05:47:24;37.05;;;13.43;;
76617;SDS011;65509;42.816;74.648;2022-12-07T05:49:50;37.60;;;17.75;;
76617;SDS011;65509;42.816;74.648;2022-12-07T05:52:15;35.47;;;14.18;;
76617;SDS011;65509;42.816;74.648;2022-12-07T05:54:41;24.73;;;10.25;;
76617;SDS011;65509;42.816;74.648;2022-12-07T05:57:06;26.33;;;9.55;;
76617;SDS011;65509;42.816;74.648;2022-12-07T05:59:32;26.42;;;10.45;;
76617;SDS011;65509;42.816;74.648;2022-12-07T06:01:58;28.52;;;10.88;;
76617;SDS011;65509;42.816;74.648;2022-12-07T06:04:24;32.35;;;11.70;;
76617;SDS011;65509;42.816;74.648;2022-12-07T06:06:50;31.27;;;12.30;;
76617;SDS011;65509;42.816;74.648;2022-12-07T06:09:16;32.67;;;12.15;;
76617;SDS011;65509;42.816;74.648;2022-12-07T06:11:43;32.35;;;11.13;;
76617;SDS011;65509;42.816;74.648;2022-12-07T06:14:27;25.63;;;10.23;;
76617;SDS011;65509;42.816;74.648;2022-12-07T06:16:52;26.92;;;10.00;;
76617;SDS011;65509;42.816;74.648;2022-12-07T06:19:18;31.67;;;12.55;;
76617;SDS011;65509;42.816;74.648;2022-12-07T06:21:43;48.25;;;19.45;;
76617;SDS011;65509;42.816;74.648;2022-12-07T06:24:12;55.10;;;18.60;;
76617;SDS011;65509;42.816;74.648;2022-12-07T06:26:38;48.53;;;18.80;;
76617;SDS011;65509;42.816;74.648;2022-12-07T06:29:04;42.25;;;17.17;;
76617;SDS011;65509;42.816;74.648;2022-12-07T06:31:29;45.28;;;17.98;;
76617;SDS011;65509;42.816;74.648;2022-12-07T06:33:58;45.55;;;17.83;;
76617;SDS011;65509;42.816;74.648;2022-12-07T06:36:26;42.40;;;16.95;;
76617;SDS011;65509;42.816;74.648;2022-12-07T06:38:52;43.55;;;17.05;;
76617;SDS011;65509;42.816;74.648;2022-12-07T06:41:17;42.55;;;16.40;;
76617;SDS011;65509;42.816;74.648;2022-12-07T06:43:43;35.05;;;15.20;;
76617;SDS011;65509;42.816;74.648;2022-12-07T06:46:08;40.60;;;14.07;;
76617;SDS011;65509;42.816;74.648;2022-12-07T06:48:34;36.30;;;15.02;;
76617;SDS011;65509;42.816;74.648;2022-12-07T06:50:59;34.00;;;14.43;;
76617;SDS011;65509;42.816;74.648;2022-12-07T06:53:25;37.90;;;14.55;;
76617;SDS011;65509;42.816;74.648;2022-12-07T06:55:50;35.83;;;15.35;;
76617;SDS011;65509;42.816;74.648;2022-12-07T06:58:16;42.05;;;15.27;;
76617;SDS011;65509;42.816;74.648;2022-12-07T07:00:42;36.40;;;14.15;;
76617;SDS011;65509;42.816;74.648;2022-12-07T07:03:08;36.70;;;14.25;;
76617;SDS011;65509;42.816;74.648;2022-12-07T07:05:33;40.55;;;15.45;;
76617;SDS011;65509;42.816;74.648;2022-12-07T07:07:59;32.95;;;12.07;;
76617;SDS011;65509;42.816;74.648;2022-12-07T07:10:24;30.58;;;12.45;;
76617;SDS011;65509;42.816;74.648;2022-12-07T07:12:50;26.90;;;11.15;;
76617;SDS011;65509;42.816;74.648;2022-12-07T07:15:15;31.30;;;11.60;;
76617;SDS011;65509;42.816;74.648;2022-12-07T07:17:41;31.30;;;12.80;;
76617;SDS011;65509;42.816;74.648;2022-12-07T07:20:06;29.02;;;11.90;;
76617;SDS011;65509;42.816;74.648;2022-12-07T07:22:32;26.20;;;10.77;;
76617;SDS011;65509;42.816;74.648;2022-12-07T07:24:58;30.83;;;11.20;;
76617;SDS011;65509;42.816;74.648;2022-12-07T07:27:23;32.58;;;11.38;;
76617;SDS011;65509;42.816;74.648;2022-12-07T07:29:49;34.20;;;12.32;;
76617;SDS011;65509;42.816;74.648;2022-12-07T07:32:14;33.33;;;12.60;;
76617;SDS011;65509;42.816;74.648;2022-12-07T07:34:40;28.17;;;10.35;;
76617;SDS011;65509;42.816;74.648;2022-12-07T07:37:05;27.35;;;10.90;;
76617;SDS011;65509;42.816;74.648;2022-12-07T07:39:31;30.23;;;11.00;;
76617;SDS011;65509;42.816;74.648;2022-12-07T07:41:56;29.58;;;10.88;;
76617;SDS011;65509;42.816;74.648;2022-12-07T07:44:22;36.60;;;12.48;;
76617;SDS011;65509;42.816;74.648;2022-12-07T07:46:47;33.45;;;12.35;;
76617;SDS011;65509;42.816;74.648;2022-12-07T07:49:13;33.45;;;10.95;;
76617;SDS011;65509;42.816;74.648;2022-12-07T07:51:38;27.77;;;10.43;;
76617;SDS011;65509;42.816;74.648;2022-12-07T07:54:04;30.85;;;11.00;;
76617;SDS011;65509;42.816;74.648;2022-12-07T07:56:30;25.25;;;9.95;;
76617;SDS011;65509;42.816;74.648;2022-12-07T07:58:55;26.65;;;10.20;;
76617;SDS011;65509;42.816;74.648;2022-12-07T08:01:21;30.65;;;10.93;;
76617;SDS011;65509;42.816;74.648;2022-12-07T08:03:47;25.60;;;9.63;;
76617;SDS011;65509;42.816;74.648;2022-12-07T08:06:12;31.30;;;10.93;;
76617;SDS011;65509;42.816;74.648;2022-12-07T08:08:38;32.58;;;10.25;;
76617;SDS011;65509;42.816;74.648;2022-12-07T08:11:07;24.40;;;8.98;;
76617;SDS011;65509;42.816;74.648;2022-12-07T08:13:33;24.77;;;9.77;;
76617;SDS011;65509;42.816;74.648;2022-12-07T08:15:58;26.27;;;9.80;;
76617;SDS011;65509;42.816;74.648;2022-12-07T08:18:28;30.90;;;10.57;;
76617;SDS011;65509;42.816;74.648;2022-12-07T08:20:58;30.40;;;10.93;;
76617;SDS011;65509;42.816;74.648;2022-12-07T08:23:23;33.38;;;10.15;;
76617;SDS011;65509;42.816;74.648;2022-12-07T08:25:49;22.92;;;8.50;;
76617;SDS011;65509;42.816;74.648;2022-12-07T08:28:15;29.70;;;11.10;;
76617;SDS011;65509;42.816;74.648;2022-12-07T08:30:41;36.88;;;13.30;;
76617;SDS011;65509;42.816;74.648;2022-12-07T08:33:06;48.85;;;18.77;;
76617;SDS011;65509;42.816;74.648;2022-12-07T08:35:32;36.58;;;14.15;;
76617;SDS011;65509;42.816;74.648;2022-12-07T08:37:58;49.85;;;16.58;;
76617;SDS011;65509;42.816;74.648;2022-12-07T08:40:23;137.13;;;49.78;;
76617;SDS011;65509;42.816;74.648;2022-12-07T08:42:49;170.75;;;64.40;;
76617;SDS011;65509;42.816;74.648;2022-12-07T08:45:15;185.02;;;69.72;;
76617;SDS011;65509;42.816;74.648;2022-12-07T08:47:42;235.75;;;83.13;;
76617;SDS011;65509;42.816;74.648;2022-12-07T08:50:09;260.05;;;90.97;;
76617;SDS011;65509;42.816;74.648;2022-12-07T08:52:35;232.82;;;86.68;;
76617;SDS011;65509;42.816;74.648;2022-12-07T08:55:01;259.92;;;94.03;;
76617;SDS011;65509;42.816;74.648;2022-12-07T08:57:28;258.13;;;98.28;;
76617;SDS011;65509;42.816;74.648;2022-12-07T08:59:55;268.45;;;97.32;;
76617;SDS011;65509;42.816;74.648;2022-12-07T09:02:23;261.65;;;96.07;;
76617;SDS011;65509;42.816;74.648;2022-12-07T09:04:49;248.30;;;91.60;;
76617;SDS011;65509;42.816;74.648;2022-12-07T09:07:14;268.23;;;95.15;;
76617;SDS011;65509;42.816;74.648;2022-12-07T09:09:40;253.70;;;101.88;;
76617;SDS011;65509;42.816;74.648;2022-12-07T09:12:07;280.92;;;103.70;;
76617;SDS011;65509;42.816;74.648;2022-12-07T09:14:34;285.98;;;103.47;;
76617;SDS011;65509;42.816;74.648;2022-12-07T09:17:10;270.50;;;98.03;;
76617;SDS011;65509;42.816;74.648;2022-12-07T09:19:36;274.08;;;101.22;;
76617;SDS011;65509;42.816;74.648;2022-12-07T09:22:02;278.02;;;103.55;;
76617;SDS011;65509;42.816;74.648;2022-12-07T09:24:30;284.58;;;106.28;;
76617;SDS011;65509;42.816;74.648;2022-12-07T09:26:55;332.30;;;119.18;;
76617;SDS011;65509;42.816;74.648;2022-12-07T09:29:21;384.23;;;134.00;;
76617;SDS011;65509;42.816;74.648;2022-12-07T09:31:46;345.45;;;124.57;;
76617;SDS011;65509;42.816;74.648;2022-12-07T09:34:12;416.67;;;150.60;;
76617;SDS011;65509;42.816;74.648;2022-12-07T09:36:37;337.67;;;125.30;;
76617;SDS011;65509;42.816;74.648;2022-12-07T09:39:03;332.33;;;122.03;;
76617;SDS011;65509;42.816;74.648;2022-12-07T09:41:29;341.65;;;118.65;;
76617;SDS011;65509;42.816;74.648;2022-12-07T09:43:57;296.55;;;110.43;;
76617;SDS011;65509;42.816;74.648;2022-12-07T09:46:27;300.80;;;109.90;;
76617;SDS011;65509;42.816;74.648;2022-12-07T09:48:54;275.95;;;98.25;;
76617;SDS011;65509;42.816;74.648;2022-12-07T09:51:20;300.15;;;106.00;;
76617;SDS011;65509;42.816;74.648;2022-12-07T09:53:46;306.33;;;108.63;;
76617;SDS011;65509;42.816;74.648;2022-12-07T09:56:16;307.75;;;110.05;;
76617;SDS011;65509;42.816;74.648;2022-12-07T09:58:42;313.58;;;106.28;;
76617;SDS011;65509;42.816;74.648;2022-12-07T10:03:42;308.42;;;109.50;;
76617;SDS011;65509;42.816;74.648;2022-12-07T10:06:10;350.70;;;117.38;;
76617;SDS011;65509;42.816;74.648;2022-12-07T10:08:36;360.63;;;120.53;;
76617;SDS011;65509;42.816;74.648;2022-12-07T10:11:02;350.15;;;122.70;;
76617;SDS011;65509;42.816;74.648;2022-12-07T10:13:39;351.67;;;124.68;;
76617;SDS011;65509;42.816;74.648;2022-12-07T10:16:06;375.60;;;126.63;;
76617;SDS011;65509;42.816;74.648;2022-12-07T10:18:47;389.38;;;132.80;;
76617;SDS011;65509;42.816;74.648;2022-12-07T10:23:42;386.88;;;134.68;;
76617;SDS011;65509;42.816;74.648;2022-12-07T10:26:25;390.60;;;133.13;;
76617;SDS011;65509;42.816;74.648;2022-12-07T10:28:52;385.15;;;129.55;;
76617;SDS011;65509;42.816;74.648;2022-12-07T10:31:18;393.58;;;134.68;;
76617;SDS011;65509;42.816;74.648;2022-12-07T10:33:55;368.02;;;130.95;;
76617;SDS011;65509;42.816;74.648;2022-12-07T10:36:22;370.42;;;126.68;;
76617;SDS011;65509;42.816;74.648;2022-12-07T10:38:50;383.92;;;126.60;;
76617;SDS011;65509;42.816;74.648;2022-12-07T10:41:16;384.77;;;122.28;;
76617;SDS011;65509;42.816;74.648;2022-12-07T10:43:49;332.40;;;117.70;;
76617;SDS011;65509;42.816;74.648;2022-12-07T10:49:03;332.15;;;109.55;;
76617;SDS011;65509;42.816;74.648;2022-12-07T10:51:43;320.65;;;106.45;;
76617;SDS011;65509;42.816;74.648;2022-12-07T10:54:36;303.75;;;102.22;;
76617;SDS011;65509;42.816;74.648;2022-12-07T11:10:13;312.80;;;96.28;;
76617;SDS011;65509;42.816;74.648;2022-12-07T11:15:19;324.15;;;102.90;;
76617;SDS011;65509;42.816;74.648;2022-12-07T11:20:39;321.53;;;101.20;;
76617;SDS011;65509;42.816;74.648;2022-12-07T11:25:42;274.33;;;86.90;;
76617;SDS011;65509;42.816;74.648;2022-12-07T11:28:19;256.08;;;82.05;;
76617;SDS011;65509;42.816;74.648;2022-12-07T11:39:10;414.05;;;134.40;;
76617;SDS011;65509;42.816;74.648;2022-12-07T11:41:10;401.00;;;130.55;;
76617;SDS011;65509;42.816;74.648;2022-12-07T11:46:19;342.25;;;105.75;;
76617;SDS011;65509;42.816;74.648;2022-12-07T11:49:02;345.52;;;112.05;;
76617;SDS011;65509;42.816;74.648;2022-12-07T11:51:29;319.73;;;104.20;;
76617;SDS011;65509;42.816;74.648;2022-12-07T11:56:42;303.23;;;100.55;;
76617;SDS011;65509;42.816;74.648;2022-12-07T11:59:20;316.30;;;103.68;;
76617;SDS011;65509;42.816;74.648;2022-12-07T12:06:44;359.35;;;112.35;;
76617;SDS011;65509;42.816;74.648;2022-12-07T12:16:46;324.88;;;110.72;;
76617;SDS011;65509;42.816;74.648;2022-12-07T12:21:53;332.60;;;107.95;;
76617;SDS011;65509;42.816;74.648;2022-12-07T12:24:25;322.67;;;102.82;;
76617;SDS011;65509;42.816;74.648;2022-12-07T12:27:25;312.95;;;108.05;;
76617;SDS011;65509;42.816;74.648;2022-12-07T12:29:44;327.85;;;110.05;;
76617;SDS011;65509;42.816;74.648;2022-12-07T12:34:39;352.15;;;115.65;;
76617;SDS011;65509;42.816;74.648;2022-12-07T12:42:43;346.30;;;110.28;;
76617;SDS011;65509;42.816;74.648;2022-12-07T12:45:25;376.92;;;117.80;;
76617;SDS011;65509;42.816;74.648;2022-12-07T12:47:58;358.50;;;116.07;;
76617;SDS011;65509;42.816;74.648;2022-12-07T12:50:24;385.95;;;127.63;;
76617;SDS011;65509;42.816;74.648;2022-12-07T12:55:27;331.25;;;113.45;;
76617;SDS011;65509;42.816;74.648;2022-12-07T13:00:38;327.90;;;110.93;;
76617;SDS011;65509;42.816;74.648;2022-12-07T13:03:04;300.00;;;99.57;;
76617;SDS011;65509;42.816;74.648;2022-12-07T13:05:30;314.65;;;102.60;;
76617;SDS011;65509;42.816;74.648;2022-12-07T13:07:57;323.98;;;104.90;;
76617;SDS011;65509;42.816;74.648;2022-12-07T13:15:38;361.58;;;117.53;;
76617;SDS011;65509;42.816;74.648;2022-12-07T13:20:43;343.65;;;114.57;;
76617;SDS011;65509;42.816;74.648;2022-12-07T13:23:09;324.20;;;109.97;;
76617;SDS011;65509;42.816;74.648;2022-12-07T13:25:36;344.63;;;114.57;;
76617;SDS011;65509;42.816;74.648;2022-12-07T13:28:16;368.75;;;116.80;;
76617;SDS011;65509;42.816;74.648;2022-12-07T13:33:27;367.75;;;126.07;;
76617;SDS011;65509;42.816;74.648;2022-12-07T13:35:53;394.02;;;139.02;;
76617;SDS011;65509;42.816;74.648;2022-12-07T13:40:58;365.67;;;124.15;;
76617;SDS011;65509;42.816;74.648;2022-12-07T13:43:27;352.60;;;117.35;;
76617;SDS011;65509;42.816;74.648;2022-12-07T13:45:56;356.27;;;115.00;;
76617;SDS011;65509;42.816;74.648;2022-12-07T13:50:54;294.65;;;95.63;;
76617;SDS011;65509;42.816;74.648;2022-12-07T13:53:21;289.23;;;98.97;;
76617;SDS011;65509;42.816;74.648;2022-12-07T13:55:47;282.20;;;96.82;;
76617;SDS011;65509;42.816;74.648;2022-12-07T13:58:13;285.55;;;92.75;;
76617;SDS011;65509;42.816;74.648;2022-12-07T14:00:39;265.83;;;86.53;;
76617;SDS011;65509;42.816;74.648;2022-12-07T14:05:37;242.75;;;77.95;;
76617;SDS011;65509;42.816;74.648;2022-12-07T14:10:32;308.83;;;99.60;;
76617;SDS011;65509;42.816;74.648;2022-12-07T14:12:59;262.83;;;85.53;;
76617;SDS011;65509;42.816;74.648;2022-12-07T14:15:43;264.30;;;86.80;;
76617;SDS011;65509;42.816;74.648;2022-12-07T14:18:24;256.97;;;87.30;;
76617;SDS011;65509;42.816;74.648;2022-12-07T14:20:52;257.60;;;86.90;;
76617;SDS011;65509;42.816;74.648;2022-12-07T14:23:30;244.00;;;78.88;;
76617;SDS011;65509;42.816;74.648;2022-12-07T14:26:10;235.63;;;78.18;;
76617;SDS011;65509;42.816;74.648;2022-12-07T14:28:36;288.58;;;94.50;;
76617;SDS011;65509;42.816;74.648;2022-12-07T14:31:02;239.48;;;84.30;;
76617;SDS011;65509;42.816;74.648;2022-12-07T14:33:28;261.85;;;86.45;;
76617;SDS011;65509;42.816;74.648;2022-12-07T14:35:54;271.00;;;87.85;;
76617;SDS011;65509;42.816;74.648;2022-12-07T14:38:23;253.52;;;83.55;;
76617;SDS011;65509;42.816;74.648;2022-12-07T14:40:49;243.88;;;82.30;;
76617;SDS011;65509;42.816;74.648;2022-12-07T14:43:15;296.70;;;101.72;;
76617;SDS011;65509;42.816;74.648;2022-12-07T14:45:41;298.15;;;94.53;;
76617;SDS011;65509;42.816;74.648;2022-12-07T14:48:13;270.40;;;91.22;;
76617;SDS011;65509;42.816;74.648;2022-12-07T14:50:43;281.58;;;90.72;;
76617;SDS011;65509;42.816;74.648;2022-12-07T14:53:13;252.57;;;83.32;;
76617;SDS011;65509;42.816;74.648;2022-12-07T14:55:39;250.73;;;79.95;;
76617;SDS011;65509;42.816;74.648;2022-12-07T14:58:05;259.95;;;86.00;;
76617;SDS011;65509;42.816;74.648;2022-12-07T15:00:30;250.40;;;82.80;;
76617;SDS011;65509;42.816;74.648;2022-12-07T15:02:56;248.05;;;81.75;;
76617;SDS011;65509;42.816;74.648;2022-12-07T15:05:22;261.63;;;83.93;;
76617;SDS011;65509;42.816;74.648;2022-12-07T15:07:49;258.08;;;86.68;;
76617;SDS011;65509;42.816;74.648;2022-12-07T15:10:16;258.55;;;86.78;;
76617;SDS011;65509;42.816;74.648;2022-12-07T15:12:43;271.35;;;91.65;;
76617;SDS011;65509;42.816;74.648;2022-12-07T15:15:08;258.20;;;84.43;;
76617;SDS011;65509;42.816;74.648;2022-12-07T15:17:34;211.13;;;69.78;;
76617;SDS011;65509;42.816;74.648;2022-12-07T15:19:59;276.75;;;90.57;;
76617;SDS011;65509;42.816;74.648;2022-12-07T15:22:25;228.90;;;80.97;;
76617;SDS011;65509;42.816;74.648;2022-12-07T15:24:51;273.13;;;96.68;;
76617;SDS011;65509;42.816;74.648;2022-12-07T15:27:16;303.08;;;104.40;;
76617;SDS011;65509;42.816;74.648;2022-12-07T15:29:42;240.80;;;83.72;;
76617;SDS011;65509;42.816;74.648;2022-12-07T15:32:10;354.20;;;110.05;;
76617;SDS011;65509;42.816;74.648;2022-12-07T15:34:36;386.63;;;120.45;;
76617;SDS011;65509;42.816;74.648;2022-12-07T15:37:22;432.60;;;131.18;;
76617;SDS011;65509;42.816;74.648;2022-12-07T15:39:54;427.42;;;129.43;;
76617;SDS011;65509;42.816;74.648;2022-12-07T15:42:23;459.17;;;139.80;;
76617;SDS011;65509;42.816;74.648;2022-12-07T15:44:48;454.38;;;140.15;;
76617;SDS011;65509;42.816;74.648;2022-12-07T15:47:34;406.77;;;125.15;;
76617;SDS011;65509;42.816;74.648;2022-12-07T15:50:06;430.80;;;134.63;;
76617;SDS011;65509;42.816;74.648;2022-12-07T15:52:32;434.50;;;131.38;;
76617;SDS011;65509;42.816;74.648;2022-12-07T15:54:57;414.20;;;124.95;;
76617;SDS011;65509;42.816;74.648;2022-12-07T16:00:19;390.48;;;117.78;;
76617;SDS011;65509;42.816;74.648;2022-12-07T16:02:45;410.17;;;121.88;;